createdAt,value
2023-01-19T00:00:50.694Z,10.40
2023-01-19T00:01:50.632Z,10.50
2023-01-19T00:02:50.790Z,10.50
2023-01-19T00:03:50.612Z,10.70
2023-01-19T00:04:50.603Z,10.30
2023-01-19T00:05:50.667Z,10.40
2023-01-19T00:06:50.571Z,10.80
2023-01-19T00:07:50.591Z,10.80
2023-01-19T00:08:50.558Z,10.70
2023-01-19T00:09:50.580Z,11.20
2023-01-19T00:10:50.554Z,11.20
2023-01-19T00:11:50.507Z,11.00
2023-01-19T00:12:50.511Z,10.40
2023-01-19T00:13:50.494Z,11.50
2023-01-19T00:14:50.465Z,11.60
2023-01-19T00:15:50.516Z,11.30
2023-01-19T00:16:50.460Z,11.80
2023-01-19T00:17:50.442Z,11.50
2023-01-19T00:18:50.425Z,11.90
2023-01-19T00:19:50.416Z,11.80
2023-01-19T00:20:50.386Z,11.90
2023-01-19T00:21:50.378Z,11.20
2023-01-19T00:22:50.369Z,10.90
2023-01-19T00:23:50.350Z,11.70
2023-01-19T00:24:50.357Z,11.10
2023-01-19T00:25:50.320Z,12.00
2023-01-19T00:26:50.324Z,12.00
2023-01-19T00:27:50.284Z,11.60
2023-01-19T00:28:50.303Z,12.20
2023-01-19T00:29:50.290Z,12.00
2023-01-19T00:30:50.305Z,11.70
2023-01-19T00:31:50.316Z,11.60
2023-01-19T00:32:50.260Z,11.40
2023-01-19T00:33:50.208Z,12.00
2023-01-19T00:34:50.197Z,11.30
2023-01-19T00:35:50.228Z,11.30
2023-01-19T00:36:50.171Z,11.50
2023-01-19T00:37:50.175Z,10.90
2023-01-19T00:38:50.158Z,11.30
2023-01-19T00:39:50.131Z,10.60
2023-01-19T00:40:50.122Z,11.20
2023-01-19T00:41:50.132Z,11.80
2023-01-19T00:42:50.100Z,11.80
2023-01-19T00:43:50.092Z,11.40
2023-01-19T00:44:50.095Z,11.80
2023-01-19T00:45:50.161Z,11.30
2023-01-19T00:46:50.040Z,11.10
2023-01-19T00:47:50.044Z,11.80
2023-01-19T00:48:50.007Z,11.80
2023-01-19T00:49:50.003Z,12.20
2023-01-19T00:50:50.044Z,11.40
2023-01-19T00:51:49.967Z,11.60
2023-01-19T00:52:49.973Z,11.40
2023-01-19T00:53:49.954Z,11.70
2023-01-19T00:54:49.943Z,11.50
2023-01-19T00:55:49.911Z,12.20
2023-01-19T00:56:49.929Z,12.00
2023-01-19T00:57:49.870Z,11.70
2023-01-19T00:58:49.879Z,11.90
2023-01-19T00:59:49.874Z,11.00
2023-01-19T01:00:50.014Z,11.70
2023-01-19T01:01:49.945Z,11.80
2023-01-19T01:02:49.837Z,11.50
2023-01-19T01:03:49.815Z,12.20
2023-01-19T01:04:49.795Z,12.60
2023-01-19T01:05:49.810Z,12.20
2023-01-19T01:06:49.876Z,11.90
2023-01-19T01:07:49.766Z,11.90
2023-01-19T01:08:48.730Z,11.80
2023-01-19T01:09:49.751Z,12.20
2023-01-19T01:10:49.733Z,12.00
2023-01-19T01:11:49.725Z,12.50
2023-01-19T01:12:57.765Z,11.80
2023-01-19T01:13:49.679Z,11.90
2023-01-19T01:14:49.682Z,11.70
2023-01-19T01:28:48.981Z,11.70
2023-01-19T01:29:49.952Z,11.30
2023-01-19T01:34:40.696Z,12.00
2023-01-19T01:35:40.099Z,12.10
2023-01-19T01:36:40.038Z,12.70
2023-01-19T01:37:39.922Z,12.00
2023-01-19T01:38:39.913Z,12.20
2023-01-19T01:39:39.919Z,12.60
2023-01-19T01:40:39.903Z,12.60
2023-01-19T01:41:39.873Z,12.80
2023-01-19T01:42:39.880Z,12.10
2023-01-19T01:43:39.846Z,13.20
2023-01-19T01:44:39.849Z,12.70
2023-01-19T02:10:01.329Z,12.40
2023-01-19T02:11:00.434Z,12.50
2023-01-19T02:12:00.404Z,12.60
2023-01-19T02:13:00.918Z,11.40
2023-01-19T02:14:00.372Z,12.40
2023-01-19T02:15:00.354Z,12.10
2023-01-19T02:16:00.346Z,12.50
2023-01-19T02:17:00.408Z,11.90
2023-01-19T02:18:00.356Z,12.40
2023-01-19T02:19:00.352Z,12.30
2023-01-19T02:20:00.312Z,11.00
2023-01-19T02:21:00.326Z,11.00
2023-01-19T02:22:00.264Z,11.50
2023-01-19T02:23:00.687Z,12.20
2023-01-19T02:24:00.228Z,12.20
2023-01-19T02:25:00.251Z,12.20
2023-01-19T02:26:00.226Z,12.00
2023-01-19T02:27:00.196Z,12.00
2023-01-19T02:28:00.202Z,12.10
2023-01-19T02:29:00.167Z,12.20
2023-01-19T02:30:00.183Z,12.30
2023-01-19T02:31:00.200Z,11.90
2023-01-19T02:32:00.144Z,12.20
2023-01-19T02:33:00.493Z,11.90
2023-01-19T02:34:00.130Z,11.60
2023-01-19T02:35:00.120Z,11.80
2023-01-19T02:36:00.103Z,11.90
2023-01-19T02:37:00.059Z,11.30
2023-01-19T02:38:00.093Z,11.40
2023-01-19T02:39:00.089Z,12.50
2023-01-19T02:40:00.029Z,12.00
2023-01-19T02:41:00.028Z,12.00
2023-01-19T02:42:00.011Z,12.60
2023-01-19T02:43:00.330Z,11.90
2023-01-19T02:43:59.988Z,11.30
2023-01-19T02:45:00.026Z,12.30
2023-01-19T02:45:59.996Z,12.80
2023-01-19T02:46:59.945Z,11.80
2023-01-19T02:47:59.942Z,11.30
2023-01-19T02:48:59.933Z,12.20
2023-01-19T02:49:59.886Z,11.60
2023-01-19T02:50:59.892Z,11.60
2023-01-19T02:51:59.905Z,11.80
2023-01-19T02:53:00.174Z,11.50
2023-01-19T02:53:59.846Z,11.90
2023-01-19T02:54:59.871Z,11.50
2023-01-19T02:55:59.778Z,12.40
2023-01-19T02:56:59.809Z,11.90
2023-01-19T02:57:59.776Z,11.40
2023-01-19T02:58:59.822Z,11.90
2023-01-19T02:59:59.743Z,12.00
2023-01-19T03:00:59.861Z,11.50
2023-01-19T03:01:59.806Z,11.90
2023-01-19T03:03:00.127Z,12.00
2023-01-19T03:03:59.828Z,12.00
2023-01-19T03:04:59.687Z,12.30
2023-01-19T03:05:59.714Z,11.00
2023-01-19T03:06:59.662Z,11.80
2023-01-19T03:07:59.658Z,11.90
2023-01-19T03:08:59.672Z,11.60
2023-01-19T03:09:59.644Z,11.70
2023-01-19T03:10:59.655Z,12.70
2023-01-19T03:11:59.623Z,12.30
2023-01-19T03:12:59.942Z,11.60
2023-01-19T03:14:01.741Z,12.20
2023-01-19T03:14:59.586Z,11.90
2023-01-19T03:15:59.625Z,12.10
2023-01-19T03:16:59.529Z,12.20
2023-01-19T03:17:59.519Z,11.90
2023-01-19T03:18:59.571Z,11.50
2023-01-19T03:19:59.524Z,12.00
2023-01-19T03:20:59.483Z,11.70
2023-01-19T03:21:59.484Z,12.30
2023-01-19T03:22:59.738Z,12.50
2023-01-19T03:23:59.440Z,12.40
2023-01-19T03:24:59.474Z,12.30
2023-01-19T03:25:59.407Z,11.20
2023-01-19T03:26:59.413Z,12.60
2023-01-19T04:25:06.802Z,10.60
2023-01-19T04:26:06.596Z,10.70
2023-01-19T04:27:06.599Z,10.70
2023-01-19T04:28:06.580Z,10.30
2023-01-19T04:29:20.971Z,10.60
2023-01-19T04:30:06.572Z,10.40
2023-01-19T04:31:06.842Z,10.30
2023-01-19T04:32:27.775Z,10.30
2023-01-19T04:33:06.547Z,11.20
2023-01-19T04:34:22.055Z,10.40
2023-01-19T04:35:06.509Z,10.90
2023-01-19T04:42:24.716Z,11.90
2023-01-19T04:43:25.507Z,11.70
2023-01-19T04:44:25.505Z,12.70
2023-01-19T04:45:25.496Z,11.40
2023-01-19T04:46:25.545Z,12.10
2023-01-19T04:47:25.449Z,12.00
2023-01-19T04:48:25.461Z,13.00
2023-01-19T04:49:25.555Z,12.40
2023-01-19T04:50:25.457Z,12.40
2023-01-19T04:51:25.402Z,12.90
2023-01-19T04:52:25.374Z,12.90
2023-01-19T04:53:25.366Z,12.40
2023-01-19T04:54:25.390Z,13.00
2023-01-19T04:55:25.334Z,12.00
2023-01-19T04:56:25.339Z,12.30
2023-01-19T04:57:25.310Z,13.50
2023-01-19T04:58:25.332Z,13.00
2023-01-19T04:59:25.324Z,13.50
2023-01-19T05:00:25.285Z,12.60
2023-01-19T05:01:25.342Z,13.00
2023-01-19T05:02:25.242Z,12.60
2023-01-19T05:03:26.559Z,12.40
2023-01-19T05:04:25.207Z,12.40
2023-01-19T05:05:25.233Z,13.90
2023-01-19T05:06:25.219Z,12.80
2023-01-19T05:07:25.180Z,12.40
2023-01-19T05:08:25.221Z,12.50
2023-01-19T05:09:25.153Z,12.40
2023-01-19T05:10:25.136Z,12.70
2023-01-19T05:11:25.138Z,12.70
2023-01-19T05:12:25.101Z,12.60
2023-01-19T05:13:25.126Z,12.50
2023-01-19T05:14:25.103Z,13.20
2023-01-19T05:15:25.119Z,13.30
2023-01-19T05:16:25.160Z,12.50
2023-01-19T05:17:25.071Z,13.10
2023-01-19T05:18:25.073Z,12.90
2023-01-19T05:19:25.040Z,12.30
2023-01-19T05:20:25.063Z,12.70
2023-01-19T05:21:24.998Z,12.60
2023-01-19T05:22:24.980Z,13.20
2023-01-19T05:23:24.994Z,12.50
2023-01-19T05:24:24.958Z,12.60
2023-01-19T05:25:24.998Z,13.70
2023-01-19T05:26:24.983Z,11.70
2023-01-19T05:27:24.948Z,13.30
2023-01-19T05:28:24.891Z,13.50
2023-01-19T05:29:24.901Z,12.60
2023-01-19T05:30:24.905Z,12.80
2023-01-19T05:31:24.981Z,13.30
2023-01-19T05:32:24.841Z,13.90
2023-01-19T05:33:24.827Z,13.80
2023-01-19T05:34:24.816Z,12.90
2023-01-19T05:35:35.272Z,13.70
2023-01-19T05:36:24.846Z,13.50
2023-01-19T05:37:24.809Z,13.80
2023-01-19T05:38:34.592Z,14.00
2023-01-19T05:39:24.755Z,13.80
2023-01-19T05:40:24.758Z,13.20
2023-01-19T05:41:24.741Z,12.80
2023-01-19T05:42:24.727Z,13.60
2023-01-19T05:43:24.700Z,13.60
2023-01-19T05:44:24.788Z,13.70
2023-01-19T05:45:24.696Z,13.00
2023-01-19T05:46:24.772Z,13.60
2023-01-19T05:47:24.665Z,13.70
2023-01-19T05:48:24.645Z,13.70
2023-01-19T05:49:24.628Z,13.90
2023-01-19T05:50:24.649Z,12.90
2023-01-19T05:51:24.639Z,13.50
2023-01-19T05:52:24.629Z,13.30
2023-01-19T05:53:24.567Z,13.40
2023-01-19T05:54:24.573Z,14.10
2023-01-19T05:55:24.577Z,13.90
2023-01-19T05:56:24.683Z,14.30
2023-01-19T05:57:24.525Z,13.70
2023-01-19T05:58:24.496Z,13.60
2023-01-19T05:59:24.513Z,13.40
2023-01-19T06:00:24.478Z,13.90
2023-01-19T06:01:24.558Z,13.20
2023-01-19T06:02:24.517Z,13.30
2023-01-19T06:03:24.456Z,13.30
2023-01-19T06:04:24.423Z,13.00
2023-01-19T06:05:24.443Z,12.90
2023-01-19T06:06:24.393Z,12.70
2023-01-19T06:07:25.303Z,12.80
2023-01-19T06:08:24.453Z,12.20
2023-01-19T06:09:24.409Z,13.30
2023-01-19T06:10:24.359Z,13.30
2023-01-19T06:11:24.417Z,12.80
2023-01-19T06:12:24.395Z,14.00
2023-01-19T06:13:24.323Z,13.80
2023-01-19T06:14:24.291Z,13.10
2023-01-19T06:15:24.366Z,12.30
2023-01-19T06:16:24.351Z,11.70
2023-01-19T06:17:24.242Z,11.70
2023-01-19T06:18:24.240Z,11.70
2023-01-19T06:19:24.301Z,12.30
2023-01-19T06:20:24.239Z,11.30
2023-01-19T06:21:24.215Z,11.70
2023-01-19T06:22:24.219Z,10.90
2023-01-19T06:23:24.229Z,11.10
2023-01-19T06:24:24.174Z,10.60
2023-01-19T06:25:24.176Z,10.80
2023-01-19T06:26:24.180Z,10.20
2023-01-19T06:27:24.133Z,10.50
2023-01-19T06:28:24.111Z,9.90
2023-01-19T06:29:24.173Z,10.40
2023-01-19T06:30:24.108Z,10.60
2023-01-19T06:31:24.104Z,10.60
2023-01-19T06:32:24.160Z,10.40
2023-01-19T06:33:24.073Z,11.10
2023-01-19T06:34:24.049Z,10.60
2023-01-19T06:35:24.060Z,10.00
2023-01-19T06:36:24.032Z,11.00
2023-01-19T06:37:24.002Z,10.60
2023-01-19T06:38:23.998Z,10.40
2023-01-19T06:39:24.023Z,10.90
2023-01-19T06:40:23.979Z,10.80
2023-01-19T06:41:23.933Z,11.90
2023-01-19T06:42:23.941Z,11.50
2023-01-19T06:43:23.942Z,11.50
2023-01-19T06:44:23.931Z,11.30
2023-01-19T06:45:24.018Z,11.50
2023-01-19T06:46:23.884Z,11.50
2023-01-19T06:47:23.939Z,11.50
2023-01-19T06:48:23.881Z,10.90
2023-01-19T06:49:23.828Z,10.90
2023-01-19T06:50:23.840Z,10.90
2023-01-19T06:51:23.799Z,11.00
2023-01-19T06:52:23.833Z,11.60
2023-01-19T06:53:23.830Z,11.40
2023-01-19T06:54:23.773Z,11.40
2023-01-19T06:55:23.762Z,11.90
2023-01-19T06:56:23.757Z,11.10
2023-01-19T06:57:23.735Z,11.40
2023-01-19T06:58:23.742Z,11.30
2023-01-19T06:59:23.687Z,11.10
2023-01-19T07:00:23.790Z,10.80
2023-01-19T07:01:23.703Z,11.40
2023-01-19T07:02:26.294Z,10.80
2023-01-19T07:03:24.216Z,11.50
2023-01-19T07:04:23.635Z,11.00
2023-01-19T07:05:23.640Z,11.40
2023-01-19T07:06:23.610Z,11.10
2023-01-19T07:07:23.604Z,10.80
2023-01-19T07:08:23.608Z,11.20
2023-01-19T07:09:23.583Z,10.80
2023-01-19T07:10:23.657Z,10.90
2023-01-19T07:11:31.963Z,11.00
2023-01-19T07:12:23.551Z,10.80
2023-01-19T07:13:23.528Z,11.30
2023-01-19T07:14:23.502Z,10.90
2023-01-19T07:15:23.492Z,11.30
2023-01-19T07:16:23.618Z,10.70
2023-01-19T07:17:23.493Z,11.50
2023-01-19T07:18:23.492Z,11.00
2023-01-19T07:19:23.478Z,11.50
2023-01-19T07:20:23.522Z,10.90
2023-01-19T07:21:23.423Z,13.00
2023-01-19T07:22:23.400Z,11.50
2023-01-19T07:23:23.380Z,12.10
2023-01-19T07:24:23.394Z,11.50
2023-01-19T07:25:23.377Z,12.10
2023-01-19T07:26:23.362Z,12.00
2023-01-19T07:27:23.334Z,12.00
2023-01-19T07:28:23.357Z,11.70
2023-01-19T07:29:23.372Z,11.40
2023-01-19T07:30:23.392Z,11.60
2023-01-19T07:31:23.422Z,10.90
2023-01-19T07:32:23.321Z,11.40
2023-01-19T07:33:23.257Z,11.40
2023-01-19T07:34:23.270Z,12.70
2023-01-19T07:35:23.288Z,12.80
2023-01-19T07:36:23.304Z,12.60
2023-01-19T07:37:23.247Z,12.20
2023-01-19T07:38:23.202Z,11.90
2023-01-19T07:39:23.187Z,12.40
2023-01-19T07:40:24.122Z,12.50
2023-01-19T07:41:23.200Z,12.10
2023-01-19T07:42:23.142Z,12.60
2023-01-19T07:43:23.133Z,12.60
2023-01-19T07:44:23.111Z,12.80
2023-01-19T07:45:23.129Z,12.80
2023-01-19T07:46:24.480Z,11.70
2023-01-19T07:47:23.117Z,12.50
2023-01-19T07:48:23.215Z,13.20
2023-01-19T07:49:23.053Z,13.10
2023-01-19T07:50:23.046Z,12.70
2023-01-19T07:51:23.050Z,13.10
2023-01-19T07:52:23.064Z,12.90
2023-01-19T07:53:23.003Z,12.40
2023-01-19T07:54:23.014Z,13.30
2023-01-19T07:55:22.974Z,13.60
2023-01-19T07:56:22.989Z,13.00
2023-01-19T07:57:22.942Z,14.10
2023-01-19T07:58:22.936Z,13.30
2023-01-19T07:59:22.961Z,13.60
2023-01-19T08:00:22.911Z,14.00
2023-01-19T08:01:22.993Z,12.90
2023-01-19T08:02:22.940Z,13.00
2023-01-19T08:03:22.907Z,14.80
2023-01-19T08:04:22.884Z,14.50
2023-01-19T08:05:22.853Z,14.40
2023-01-19T08:06:22.859Z,14.60
2023-01-19T08:07:22.876Z,14.80
2023-01-19T08:08:22.805Z,14.70
2023-01-19T08:09:22.809Z,14.20
2023-01-19T08:10:22.827Z,15.00
2023-01-19T08:11:22.820Z,14.60
2023-01-19T08:12:22.750Z,14.80
2023-01-19T08:13:22.798Z,15.00
2023-01-19T08:14:22.810Z,16.10
2023-01-19T08:15:22.914Z,15.00
2023-01-19T08:16:22.732Z,13.80
2023-01-19T08:17:22.714Z,14.70
2023-01-19T08:18:22.706Z,14.90
2023-01-19T08:19:22.741Z,14.60
2023-01-19T08:20:22.675Z,14.60
2023-01-19T08:21:22.690Z,15.60
2023-01-19T08:22:22.650Z,15.60
2023-01-19T08:23:22.609Z,14.90
2023-01-19T08:24:22.690Z,15.20
2023-01-19T08:25:22.610Z,15.70
2023-01-19T08:26:22.595Z,15.20
2023-01-19T08:27:22.567Z,15.70
2023-01-19T08:28:22.561Z,14.20
2023-01-19T08:29:22.586Z,14.50
2023-01-19T08:30:22.540Z,15.00
2023-01-19T08:31:24.809Z,15.30
2023-01-19T08:32:22.555Z,14.40
2023-01-19T08:33:22.479Z,15.40
2023-01-19T08:34:22.490Z,16.40
2023-01-19T08:35:22.483Z,15.20
2023-01-19T08:36:22.477Z,15.50
2023-01-19T08:37:22.450Z,15.50
2023-01-19T08:38:22.438Z,15.50
2023-01-19T08:39:22.429Z,16.00
2023-01-19T08:40:22.511Z,15.20
2023-01-19T08:41:22.465Z,15.00
2023-01-19T08:42:22.429Z,14.60
2023-01-19T08:43:22.358Z,14.80
2023-01-19T08:44:22.336Z,14.60
2023-01-19T08:45:22.317Z,14.00
2023-01-19T08:46:22.373Z,14.60
2023-01-19T08:47:22.351Z,13.70
2023-01-19T08:48:22.311Z,13.90
2023-01-19T08:49:22.332Z,14.30
2023-01-19T08:50:22.340Z,12.60
2023-01-19T08:51:22.283Z,13.30
2023-01-19T08:52:22.271Z,12.80
2023-01-19T08:53:22.226Z,12.70
2023-01-19T08:54:22.210Z,12.20
2023-01-19T08:55:22.203Z,12.50
2023-01-19T08:56:22.183Z,12.10
2023-01-19T08:57:22.205Z,11.40
2023-01-19T08:58:22.162Z,10.80
2023-01-19T08:59:22.176Z,10.40
2023-01-19T09:00:22.289Z,10.70
2023-01-19T09:01:22.378Z,10.60
2023-01-19T09:02:22.314Z,10.20
2023-01-19T09:03:22.109Z,10.20
2023-01-19T09:04:22.076Z,10.60
2023-01-19T09:05:22.082Z,10.00
2023-01-19T09:06:22.124Z,10.70
2023-01-19T09:07:22.062Z,10.40
2023-01-19T09:08:22.033Z,10.70
2023-01-19T09:09:22.061Z,9.60
2023-01-19T09:10:22.016Z,10.30
2023-01-19T09:11:21.977Z,10.60
2023-01-19T09:12:21.983Z,9.60
2023-01-19T09:13:21.975Z,10.10
2023-01-19T09:14:21.938Z,10.10
2023-01-19T09:15:21.923Z,10.00
2023-01-19T09:16:21.998Z,10.20
2023-01-19T09:17:21.936Z,10.20
2023-01-19T09:18:21.890Z,10.20
2023-01-19T09:19:21.902Z,10.40
2023-01-19T09:20:21.864Z,10.90
2023-01-19T09:21:21.988Z,9.90
2023-01-19T09:22:21.862Z,9.80
2023-01-19T09:23:21.826Z,10.80
2023-01-19T09:24:21.822Z,10.80
2023-01-19T09:25:21.809Z,10.40
2023-01-19T09:26:21.866Z,10.50
2023-01-19T09:27:21.858Z,10.60
2023-01-19T09:28:21.753Z,10.50
2023-01-19T09:29:21.740Z,10.50
2023-01-19T09:30:21.810Z,10.20
2023-01-19T09:31:21.807Z,10.40
2023-01-19T09:32:21.755Z,10.80
2023-01-19T09:33:21.717Z,10.70
2023-01-19T09:34:21.690Z,10.60
2023-01-19T09:35:21.693Z,11.30
2023-01-19T09:36:21.677Z,10.80
2023-01-19T09:37:21.661Z,10.00
2023-01-19T09:38:21.684Z,10.90
2023-01-19T09:39:21.628Z,10.20
2023-01-19T09:40:21.660Z,10.40
2023-01-19T09:41:21.587Z,10.80
2023-01-19T09:42:21.674Z,11.00
2023-01-19T09:43:21.570Z,10.60
2023-01-19T09:44:21.552Z,11.30
2023-01-19T09:45:21.543Z,10.50
2023-01-19T09:46:21.638Z,10.80
2023-01-19T09:47:21.521Z,10.60
2023-01-19T09:48:21.495Z,10.80
2023-01-19T09:49:21.494Z,10.70
2023-01-19T09:50:21.474Z,10.30
2023-01-19T09:51:21.453Z,11.20
2023-01-19T09:52:21.458Z,10.60
2023-01-19T09:53:21.421Z,10.70
2023-01-19T09:54:21.419Z,10.80
2023-01-19T09:55:21.401Z,11.30
2023-01-19T09:56:21.406Z,10.70
2023-01-19T09:57:21.382Z,11.00
2023-01-19T09:58:21.373Z,11.40
2023-01-19T09:59:21.342Z,11.30
2023-01-19T10:00:21.334Z,10.80
2023-01-19T10:01:21.431Z,10.80
2023-01-19T10:02:21.367Z,11.20
2023-01-19T10:03:21.324Z,11.40
2023-01-19T10:04:21.572Z,11.30
2023-01-19T10:05:21.269Z,11.20
2023-01-19T10:06:21.277Z,10.40
2023-01-19T10:07:21.282Z,11.50
2023-01-19T10:08:21.240Z,10.90
2023-01-19T10:11:51.837Z,11.20
2023-01-19T10:12:19.895Z,11.90
2023-01-19T10:15:39.599Z,12.10
2023-01-19T10:16:38.980Z,12.40
2023-01-19T10:17:38.921Z,12.50
2023-01-19T10:18:38.904Z,12.20
2023-01-19T10:19:38.946Z,12.70
2023-01-19T10:20:38.864Z,12.40
2023-01-19T10:21:38.911Z,12.50
2023-01-19T10:22:38.861Z,12.10
2023-01-19T10:23:38.921Z,13.00
2023-01-19T10:24:38.832Z,13.30
2023-01-19T10:25:38.857Z,12.90
2023-01-19T10:26:38.823Z,12.90
2023-01-19T10:27:38.879Z,12.10
2023-01-19T10:28:38.858Z,12.80
2023-01-19T10:29:39.987Z,12.40
2023-01-19T10:30:38.875Z,12.00
2023-01-19T10:31:38.989Z,12.90
2023-01-19T10:32:38.883Z,12.40
2023-01-19T10:33:38.706Z,11.70
2023-01-19T10:34:38.717Z,11.90
2023-01-19T10:35:38.693Z,12.00
2023-01-19T10:36:38.682Z,11.80
2023-01-19T10:37:38.665Z,11.80
2023-01-19T10:38:38.656Z,11.30
2023-01-19T10:39:38.949Z,12.00
2023-01-19T10:40:38.720Z,12.00
2023-01-19T10:41:38.646Z,12.60
2023-01-19T10:42:38.679Z,11.90
2023-01-19T10:43:38.656Z,11.50
2023-01-19T10:44:38.596Z,12.00
2023-01-19T10:45:38.608Z,12.00
2023-01-19T10:46:38.617Z,13.10
2023-01-19T10:47:38.521Z,13.10
2023-01-19T10:48:38.595Z,13.20
2023-01-19T10:49:38.577Z,13.50
2023-01-19T10:50:38.543Z,13.40
2023-01-19T10:51:38.527Z,14.90
2023-01-19T10:52:38.603Z,14.70
2023-01-19T10:53:38.454Z,14.50
2023-01-19T10:54:38.453Z,15.30
2023-01-19T10:55:38.430Z,15.50
2023-01-19T10:56:38.532Z,14.20
2023-01-19T10:57:38.429Z,16.00
2023-01-19T10:58:38.424Z,15.70
2023-01-19T10:59:38.484Z,15.90
2023-01-19T11:00:38.495Z,16.30
2023-01-19T11:01:38.438Z,15.70
2023-01-19T11:02:38.485Z,16.30
2023-01-19T11:03:38.409Z,16.80
2023-01-19T11:04:38.285Z,16.60
2023-01-19T11:05:38.274Z,16.50
2023-01-19T11:06:38.262Z,15.60
2023-01-19T11:07:38.237Z,16.20
2023-01-19T11:08:38.230Z,15.40
2023-01-19T11:09:38.259Z,16.00
2023-01-19T11:10:38.183Z,16.80
2023-01-19T11:11:38.220Z,15.70
2023-01-19T11:12:38.194Z,16.00
2023-01-19T11:13:38.176Z,16.20
2023-01-19T11:14:38.181Z,16.60
2023-01-19T11:15:38.149Z,16.80
2023-01-19T11:16:38.160Z,16.90
2023-01-19T11:17:38.122Z,15.60
2023-01-19T11:18:38.108Z,17.00
2023-01-19T11:19:38.076Z,16.70
2023-01-19T11:20:38.061Z,16.10
2023-01-19T11:21:38.121Z,16.70
2023-01-19T11:22:38.050Z,16.40
2023-01-19T11:23:38.115Z,17.40
2023-01-19T11:24:38.026Z,17.00
2023-01-19T11:25:37.996Z,16.90
2023-01-19T11:26:38.079Z,16.80
2023-01-19T11:27:38.021Z,17.10
2023-01-19T11:28:38.048Z,17.40
2023-01-19T11:29:38.005Z,18.30
2023-01-19T11:30:37.954Z,17.30
2023-01-19T11:31:37.975Z,17.30
2023-01-19T11:32:37.919Z,17.20
2023-01-19T11:33:37.925Z,16.60
2023-01-19T11:34:37.880Z,17.00
2023-01-19T11:35:37.883Z,17.40
2023-01-19T11:36:37.853Z,17.80
2023-01-19T11:37:37.832Z,16.90
2023-01-19T11:38:37.813Z,17.20
2023-01-19T11:39:37.861Z,17.10
2023-01-19T11:40:37.833Z,17.10
2023-01-19T11:41:37.803Z,17.20
2023-01-19T11:42:37.780Z,17.80
2023-01-19T11:49:07.463Z,18.80
2023-01-19T11:50:08.392Z,18.60
2023-01-19T11:51:08.365Z,18.40
2023-01-19T11:52:08.358Z,19.00
2023-01-19T11:53:08.355Z,19.60
2023-01-19T11:54:08.354Z,19.10
2023-01-19T11:55:08.348Z,18.80
2023-01-19T11:56:08.366Z,19.10
2023-01-19T11:57:08.293Z,18.50
2023-01-19T11:58:08.341Z,18.80
2023-01-19T11:59:08.304Z,18.70
2023-01-19T12:00:08.293Z,17.90
2023-01-19T12:01:08.284Z,17.90
2023-01-19T12:02:08.244Z,17.70
2023-01-19T12:03:08.310Z,18.00
2023-01-19T12:04:08.264Z,16.80
2023-01-19T12:05:08.190Z,16.30
2023-01-19T12:06:08.193Z,16.30
2023-01-19T12:07:08.155Z,16.10
2023-01-19T12:08:08.556Z,16.10
2023-01-19T12:09:08.221Z,15.20
2023-01-19T12:10:08.117Z,14.80
2023-01-19T12:11:08.157Z,14.50
2023-01-19T12:12:08.132Z,14.10
2023-01-19T12:13:08.088Z,13.90
2023-01-19T12:14:08.116Z,13.20
2023-01-19T12:15:08.076Z,13.90
2023-01-19T12:16:08.061Z,14.40
2023-01-19T12:17:08.025Z,13.30
2023-01-19T12:18:08.012Z,13.30
2023-01-19T12:19:08.006Z,13.40
2023-01-19T12:20:08.018Z,13.20
2023-01-19T12:21:07.991Z,13.20
2023-01-19T12:22:07.996Z,12.70
2023-01-19T12:23:07.946Z,13.10
2023-01-19T12:24:07.990Z,13.50
2023-01-19T12:25:07.930Z,13.50
2023-01-19T12:26:07.911Z,13.20
2023-01-19T12:27:07.901Z,13.80
2023-01-19T12:28:07.880Z,12.40
2023-01-19T12:29:07.869Z,12.60
2023-01-19T12:30:07.875Z,13.40
2023-01-19T12:31:07.928Z,13.10
2023-01-19T12:32:07.827Z,12.70
2023-01-19T12:33:07.823Z,13.10
2023-01-19T12:34:07.901Z,13.10
2023-01-19T12:35:07.842Z,14.10
2023-01-19T12:36:07.787Z,13.00
2023-01-19T12:37:07.775Z,14.10
2023-01-19T12:38:07.808Z,14.00
2023-01-19T12:39:07.740Z,13.10
2023-01-19T12:40:07.720Z,13.80
2023-01-19T12:41:07.724Z,13.70
2023-01-19T12:42:07.693Z,14.10
2023-01-19T12:43:07.665Z,14.50
2023-01-19T12:44:07.671Z,14.50
2023-01-19T12:45:07.750Z,14.80
2023-01-19T12:46:07.682Z,14.10
2023-01-19T12:47:07.648Z,14.00
2023-01-19T12:48:07.627Z,14.30
2023-01-19T12:49:07.597Z,14.70
2023-01-19T12:50:07.595Z,14.80
2023-01-19T12:51:07.595Z,14.10
2023-01-19T12:52:07.574Z,15.20
2023-01-19T12:53:07.574Z,14.70
2023-01-19T12:54:07.622Z,15.30
2023-01-19T12:55:07.527Z,15.00
2023-01-19T12:56:07.504Z,15.20
2023-01-19T12:57:07.493Z,15.70
2023-01-19T12:58:07.489Z,15.00
2023-01-19T12:59:07.507Z,14.30
2023-01-19T13:00:07.475Z,13.60
2023-01-19T13:01:07.477Z,13.90
2023-01-19T13:02:07.489Z,13.80
2023-01-19T13:03:07.427Z,13.70
2023-01-19T13:04:07.784Z,14.40
2023-01-19T13:05:07.389Z,13.30
2023-01-19T14:58:28.351Z,17.80
2023-01-19T14:59:12.783Z,16.40
2023-01-19T15:00:16.590Z,17.00
2023-01-19T15:01:12.904Z,16.00
2023-01-19T16:04:00.557Z,23.30
2023-01-19T16:05:00.473Z,23.50
2023-01-19T16:06:00.437Z,23.10
2023-01-19T16:07:00.487Z,24.30
2023-01-19T16:08:01.890Z,23.30
2023-01-19T16:09:00.409Z,22.90
2023-01-19T16:10:00.388Z,22.90
2023-01-19T16:11:00.375Z,23.00
2023-01-19T16:12:00.367Z,22.70
2023-01-19T16:13:00.420Z,24.30
2023-01-19T16:14:00.354Z,23.50
2023-01-19T16:15:00.366Z,23.30
2023-01-19T16:16:00.305Z,23.40
2023-01-19T16:17:00.309Z,22.50
2023-01-19T16:18:00.308Z,22.80
2023-01-19T16:26:21.336Z,25.20
2023-01-19T16:27:20.401Z,24.50
2023-01-19T16:30:49.456Z,24.60
2023-01-19T16:31:50.420Z,25.00
2023-01-19T16:33:17.773Z,25.80
2023-01-19T16:33:50.373Z,25.20
2023-01-19T16:47:30.872Z,31.10
2023-01-19T16:48:31.833Z,31.40
2023-01-19T17:14:05.565Z,31.90
2023-01-19T17:15:05.488Z,33.00
2023-01-19T17:16:05.493Z,33.00
2023-01-19T17:17:05.496Z,33.30
2023-01-19T17:18:05.503Z,33.10
2023-01-19T17:19:05.496Z,34.90
2023-01-19T17:20:05.462Z,33.20
2023-01-19T17:21:05.452Z,33.00
2023-01-19T17:22:05.450Z,32.10
2023-01-19T17:23:05.486Z,32.60
2023-01-19T17:24:05.399Z,33.70
2023-01-19T17:25:05.427Z,38.30
2023-01-19T17:26:05.422Z,36.20
2023-01-19T17:27:05.387Z,35.70
2023-01-19T17:28:05.485Z,35.40
2023-01-19T17:29:05.339Z,35.00
2023-01-19T17:30:05.319Z,36.30
2023-01-19T17:31:05.350Z,36.70
2023-01-19T17:32:05.298Z,33.70
2023-01-19T17:33:05.304Z,32.30
2023-01-19T17:34:05.261Z,32.60
2023-01-19T17:35:05.230Z,31.20
2023-01-19T17:36:05.272Z,31.30
2023-01-19T17:37:05.242Z,30.00
2023-01-19T17:38:05.177Z,29.50
2023-01-19T17:39:05.152Z,28.60
2023-01-19T17:40:05.170Z,29.40
2023-01-19T17:41:05.168Z,28.90
2023-01-19T17:42:05.163Z,31.40
2023-01-19T17:43:05.141Z,28.40
2023-01-19T17:44:05.126Z,28.80
2023-01-19T17:45:05.083Z,29.20
2023-01-19T17:46:05.115Z,28.60
2023-01-19T17:47:05.057Z,28.50
2023-01-19T17:48:05.063Z,28.50
2023-01-19T17:49:05.050Z,29.00
2023-01-19T17:50:05.017Z,30.00
2023-01-19T17:51:05.007Z,28.80
2023-01-19T17:52:05.018Z,29.80
2023-01-19T17:53:05.046Z,29.60
2023-01-19T17:54:04.969Z,30.00
2023-01-19T17:55:04.954Z,28.80
2023-01-19T17:56:04.947Z,28.80
2023-01-19T17:57:04.963Z,29.00
2023-01-19T17:58:04.976Z,29.60
2023-01-19T17:59:04.909Z,28.70
2023-01-19T18:00:04.954Z,28.40
2023-01-19T18:01:05.046Z,29.20
2023-01-19T18:02:04.997Z,28.80
2023-01-19T18:03:04.903Z,28.50
2023-01-19T18:04:04.848Z,28.90
2023-01-19T18:05:04.822Z,28.80
2023-01-19T18:06:04.827Z,28.60
2023-01-19T18:07:05.045Z,30.40
2023-01-19T18:08:04.867Z,28.30
2023-01-19T18:09:04.774Z,29.70
2023-01-19T18:10:04.747Z,30.50
2023-01-19T18:11:04.739Z,30.10
2023-01-19T18:12:04.748Z,29.00
2023-01-19T18:13:04.750Z,29.80
2023-01-19T18:14:04.803Z,30.30
2023-01-19T18:15:04.709Z,29.70
2023-01-19T18:16:04.779Z,32.80
2023-01-19T18:17:04.653Z,31.10
2023-01-19T18:18:04.656Z,31.30
2023-01-19T18:19:04.651Z,31.60
2023-01-19T18:20:04.625Z,31.00
2023-01-19T18:21:04.653Z,31.60
2023-01-19T18:22:04.681Z,32.00
2023-01-19T18:23:04.634Z,33.10
2023-01-19T18:24:04.614Z,32.10
2023-01-19T18:25:04.573Z,30.80
2023-01-19T18:26:04.557Z,31.90
2023-01-19T18:27:04.579Z,32.60
2023-01-19T18:28:04.638Z,32.40